sensor_id;sensor_type;location;lat;lon;timestamp;temperature;humidity
2653;DHT22;1336;48.692;9.144;2023-11-19T06:00:08;12.20;97.20
2653;DHT22;1336;48.692;9.144;2023-11-19T06:01:05;12.20;97.20
2653;DHT22;1336;48.692;9.144;2023-11-19T06:01:57;12.20;97.20
2653;DHT22;1336;48.692;9.144;2023-11-19T06:02:48;12.20;97.20
2653;DHT22;1336;48.692;9.144;2023-11-19T06:03:40;12.20;97.20
2653;DHT22;1336;48.692;9.144;2023-11-19T06:04:30;12.30;97.20
2653;DHT22;1336;48.692;9.144;2023-11-19T06:05:22;12.30;97.20
2653;DHT22;1336;48.692;9.144;2023-11-19T06:06:13;12.30;97.20
2653;DHT22;1336;48.692;9.144;2023-11-19T06:07:05;12.20;97.20
2653;DHT22;1336;48.692;9.144;2023-11-19T06:07:56;12.30;97.20
2653;DHT22;1336;48.692;9.144;2023-11-19T06:08:48;12.30;97.20
2653;DHT22;1336;48.692;9.144;2023-11-19T06:09:41;12.30;97.20
2653;DHT22;1336;48.692;9.144;2023-11-19T06:10:31;12.30;97.20
2653;DHT22;1336;48.692;9.144;2023-11-19T06:11:22;12.30;97.20
2653;DHT22;1336;48.692;9.144;2023-11-19T06:12:17;12.30;97.20
2653;DHT22;1336;48.692;9.144;2023-11-19T06:13:08;12.30;97.20
2653;DHT22;1336;48.692;9.144;2023-11-19T06:14:00;12.30;97.20
2653;DHT22;1336;48.692;9.144;2023-11-19T06:14:51;12.30;97.20
2653;DHT22;1336;48.692;9.144;2023-11-19T06:15:43;12.30;97.20
2653;DHT22;1336;48.692;9.144;2023-11-19T06:16:35;12.30;97.20
2653;DHT22;1336;48.692;9.144;2023-11-19T06:17:27;12.30;97.20
2653;DHT22;1336;48.692;9.144;2023-11-19T06:18:18;12.30;97.20
2653;DHT22;1336;48.692;9.144;2023-11-19T06:19:10;12.30;97.20
2653;DHT22;1336;48.692;9.144;2023-11-19T06:20:03;12.30;97.20
2653;DHT22;1336;48.692;9.144;2023-11-19T06:20:54;12.30;97.20
2653;DHT22;1336;48.692;9.144;2023-11-19T06:21:46;12.30;97.20
2653;DHT22;1336;48.692;9.144;2023-11-19T06:22:37;12.30;97.20
2653;DHT22;1336;48.692;9.144;2023-11-19T06:23:27;12.30;97.20
2653;DHT22;1336;48.692;9.144;2023-11-19T06:24:19;12.30;97.20
2653;DHT22;1336;48.692;9.144;2023-11-19T06:25:10;12.30;97.20
2653;DHT22;1336;48.692;9.144;2023-11-19T06:26:03;12.30;97.20
2653;DHT22;1336;48.692;9.144;2023-11-19T06:26:53;12.30;97.20
2653;DHT22;1336;48.692;9.144;2023-11-19T06:27:45;12.30;97.20
2653;DHT22;1336;48.692;9.144;2023-11-19T06:28:36;12.30;97.20
2653;DHT22;1336;48.692;9.144;2023-11-19T06:29:27;12.30;97.20
2653;DHT22;1336;48.692;9.144;2023-11-19T06:30:19;12.30;97.20
2653;DHT22;1336;48.692;9.144;2023-11-19T06:31:11;12.30;97.20
2653;DHT22;1336;48.692;9.144;2023-11-19T06:32:06;12.30;97.20
2653;DHT22;1336;48.692;9.144;2023-11-19T06:32:58;12.30;97.20
2653;DHT22;1336;48.692;9.144;2023-11-19T06:33:50;12.30;97.20
2653;DHT22;1336;48.692;9.144;2023-11-19T06:34:41;12.30;97.20
2653;DHT22;1336;48.692;9.144;2023-11-19T06:35:33;12.30;97.20
2653;DHT22;1336;48.692;9.144;2023-11-19T06:36:26;12.30;97.20
2653;DHT22;1336;48.692;9.144;2023-11-19T06:37:17;12.30;97.20
2653;DHT22;1336;48.692;9.144;2023-11-19T06:38:10;12.30;97.20
2653;DHT22;1336;48.692;9.144;2023-11-19T06:39:01;12.30;97.20
2653;DHT22;1336;48.692;9.144;2023-11-19T06:39:52;12.30;97.20
2653;DHT22;1336;48.692;9.144;2023-11-19T06:40:43;12.30;97.20
2653;DHT22;1336;48.692;9.144;2023-11-19T06:41:35;12.30;97.20
2653;DHT22;1336;48.692;9.144;2023-11-19T06:42:28;12.30;97.20
2653;DHT22;1336;48.692;9.144;2023-11-19T06:43:19;12.30;97.20
2653;DHT22;1336;48.692;9.144;2023-11-19T06:44:12;12.30;97.20
2653;DHT22;1336;48.692;9.144;2023-11-19T06:45:03;12.30;97.20
2653;DHT22;1336;48.692;9.144;2023-11-19T06:45:56;12.30;97.20
2653;DHT22;1336;48.692;9.144;2023-11-19T06:46:49;12.30;97.20
2653;DHT22;1336;48.692;9.144;2023-11-19T06:47:41;12.30;97.20
2653;DHT22;1336;48.692;9.144;2023-11-19T06:48:32;12.30;97.20
2653;DHT22;1336;48.692;9.144;2023-11-19T06:49:23;12.30;97.20
2653;DHT22;1336;48.692;9.144;2023-11-19T06:50:15;12.30;97.20
2653;DHT22;1336;48.692;9.144;2023-11-19T06:51:06;12.30;97.20
2653;DHT22;1336;48.692;9.144;2023-11-19T06:51:58;12.30;97.20
2653;DHT22;1336;48.692;9.144;2023-11-19T06:52:50;12.30;97.20
2653;DHT22;1336;48.692;9.144;2023-11-19T06:53:42;12.30;97.20
2653;DHT22;1336;48.692;9.144;2023-11-19T06:54:34;12.30;97.20
2653;DHT22;1336;48.692;9.144;2023-11-19T06:55:26;12.30;97.20
2653;DHT22;1336;48.692;9.144;2023-11-19T06:56:20;12.30;97.20
2653;DHT22;1336;48.692;9.144;2023-11-19T06:57:13;12.30;97.20
2653;DHT22;1336;48.692;9.144;2023-11-19T06:58:05;12.30;97.20
2653;DHT22;1336;48.692;9.144;2023-11-19T06:58:57;12.30;97.20
2653;DHT22;1336;48.692;9.144;2023-11-19T06:59:49;12.40;97.20
2653;DHT22;1336;48.692;9.144;2023-11-19T07:00:40;12.40;97.20
2653;DHT22;1336;48.692;9.144;2023-11-19T07:01:34;12.40;97.20
2653;DHT22;1336;48.692;9.144;2023-11-19T07:02:27;12.40;97.20
2653;DHT22;1336;48.692;9.144;2023-11-19T07:03:17;12.40;97.20
2653;DHT22;1336;48.692;9.144;2023-11-19T07:04:11;12.40;97.20
2653;DHT22;1336;48.692;9.144;2023-11-19T07:05:03;12.40;97.20
2653;DHT22;1336;48.692;9.144;2023-11-19T07:05:55;12.40;97.20
2653;DHT22;1336;48.692;9.144;2023-11-19T07:06:46;12.40;97.20
2653;DHT22;1336;48.692;9.144;2023-11-19T07:07:38;12.40;97.20
2653;DHT22;1336;48.692;9.144;2023-11-19T07:08:30;12.50;97.20
2653;DHT22;1336;48.692;9.144;2023-11-19T07:09:21;12.50;97.20
2653;DHT22;1336;48.692;9.144;2023-11-19T07:10:13;12.50;97.20
2653;DHT22;1336;48.692;9.144;2023-11-19T07:11:04;12.50;97.20
2653;DHT22;1336;48.692;9.144;2023-11-19T07:11:55;12.50;97.20
2653;DHT22;1336;48.692;9.144;2023-11-19T07:12:47;12.50;97.20
2653;DHT22;1336;48.692;9.144;2023-11-19T07:13:38;12.50;97.20
2653;DHT22;1336;48.692;9.144;2023-11-19T07:14:29;12.40;97.20
2653;DHT22;1336;48.692;9.144;2023-11-19T07:15:20;12.40;97.20
2653;DHT22;1336;48.692;9.144;2023-11-19T07:16:11;12.40;97.20
2653;DHT22;1336;48.692;9.144;2023-11-19T07:17:04;12.40;97.20
2653;DHT22;1336;48.692;9.144;2023-11-19T07:17:57;12.40;97.20
2653;DHT22;1336;48.692;9.144;2023-11-19T07:18:49;12.40;97.20
2653;DHT22;1336;48.692;9.144;2023-11-19T07:19:40;12.40;97.20
2653;DHT22;1336;48.692;9.144;2023-11-19T07:20:32;12.40;97.20
2653;DHT22;1336;48.692;9.144;2023-11-19T07:21:23;12.40;97.20
2653;DHT22;1336;48.692;9.144;2023-11-19T07:22:14;12.40;97.20
2653;DHT22;1336;48.692;9.144;2023-11-19T07:23:06;12.40;97.20
2653;DHT22;1336;48.692;9.144;2023-11-19T07:23:57;12.50;97.20
2653;DHT22;1336;48.692;9.144;2023-11-19T07:24:47;12.50;97.20
2653;DHT22;1336;48.692;9.144;2023-11-19T07:25:39;12.50;97.20
2653;DHT22;1336;48.692;9.144;2023-11-19T07:26:30;12.50;97.20
2653;DHT22;1336;48.692;9.144;2023-11-19T07:27:21;12.50;97.20
2653;DHT22;1336;48.692;9.144;2023-11-19T07:28:14;12.50;97.20
2653;DHT22;1336;48.692;9.144;2023-11-19T07:29:05;12.50;97.20
2653;DHT22;1336;48.692;9.144;2023-11-19T07:29:58;12.50;97.20
2653;DHT22;1336;48.692;9.144;2023-11-19T07:30:49;12.50;97.20
2653;DHT22;1336;48.692;9.144;2023-11-19T07:31:40;12.50;97.20
2653;DHT22;1336;48.692;9.144;2023-11-19T07:32:32;12.50;97.20
2653;DHT22;1336;48.692;9.144;2023-11-19T07:33:24;12.50;97.20
2653;DHT22;1336;48.692;9.144;2023-11-19T07:34:15;12.50;97.20
2653;DHT22;1336;48.692;9.144;2023-11-19T07:35:07;12.50;97.20
2653;DHT22;1336;48.692;9.144;2023-11-19T07:35:58;12.60;97.20
2653;DHT22;1336;48.692;9.144;2023-11-19T07:36:48;12.60;97.20
2653;DHT22;1336;48.692;9.144;2023-11-19T07:37:40;12.60;97.20
2653;DHT22;1336;48.692;9.144;2023-11-19T07:38:31;12.60;97.20
2653;DHT22;1336;48.692;9.144;2023-11-19T07:39:22;12.60;97.20
2653;DHT22;1336;48.692;9.144;2023-11-19T07:40:14;12.60;97.20
2653;DHT22;1336;48.692;9.144;2023-11-19T07:41:05;12.60;97.20
2653;DHT22;1336;48.692;9.144;2023-11-19T07:41:59;12.60;97.20
2653;DHT22;1336;48.692;9.144;2023-11-19T07:42:50;12.60;97.20
2653;DHT22;1336;48.692;9.144;2023-11-19T07:43:43;12.60;97.20
2653;DHT22;1336;48.692;9.144;2023-11-19T07:44:34;12.60;97.20
2653;DHT22;1336;48.692;9.144;2023-11-19T07:45:25;12.60;97.20
2653;DHT22;1336;48.692;9.144;2023-11-19T07:46:18;12.60;97.20
2653;DHT22;1336;48.692;9.144;2023-11-19T07:47:10;12.60;97.20
2653;DHT22;1336;48.692;9.144;2023-11-19T07:48:00;12.60;97.20
2653;DHT22;1336;48.692;9.144;2023-11-19T07:48:54;12.60;97.20
2653;DHT22;1336;48.692;9.144;2023-11-19T07:49:44;12.60;97.20
2653;DHT22;1336;48.692;9.144;2023-11-19T07:50:35;12.60;97.20
2653;DHT22;1336;48.692;9.144;2023-11-19T07:51:27;12.60;97.20
2653;DHT22;1336;48.692;9.144;2023-11-19T07:52:18;12.60;97.20
2653;DHT22;1336;48.692;9.144;2023-11-19T07:53:10;12.60;97.20
2653;DHT22;1336;48.692;9.144;2023-11-19T07:54:02;12.60;97.20
2653;DHT22;1336;48.692;9.144;2023-11-19T07:54:53;12.60;97.20
2653;DHT22;1336;48.692;9.144;2023-11-19T07:55:45;12.60;97.20
2653;DHT22;1336;48.692;9.144;2023-11-19T07:56:35;12.60;97.20
2653;DHT22;1336;48.692;9.144;2023-11-19T07:57:26;12.60;97.20
2653;DHT22;1336;48.692;9.144;2023-11-19T07:58:20;12.60;97.20
2653;DHT22;1336;48.692;9.144;2023-11-19T07:59:11;12.60;97.20
2653;DHT22;1336;48.692;9.144;2023-11-19T08:00:02;12.60;97.20
2653;DHT22;1336;48.692;9.144;2023-11-19T08:00:54;12.60;97.20
2653;DHT22;1336;48.692;9.144;2023-11-19T08:01:45;12.60;97.20
2653;DHT22;1336;48.692;9.144;2023-11-19T08:02:36;12.70;97.20
2653;DHT22;1336;48.692;9.144;2023-11-19T08:03:27;12.60;97.20
2653;DHT22;1336;48.692;9.144;2023-11-19T08:04:21;12.70;97.20
2653;DHT22;1336;48.692;9.144;2023-11-19T08:05:13;12.60;97.20
2653;DHT22;1336;48.692;9.144;2023-11-19T08:06:04;12.60;97.20
2653;DHT22;1336;48.692;9.144;2023-11-19T08:06:57;12.70;97.20
2653;DHT22;1336;48.692;9.144;2023-11-19T08:07:48;12.60;97.20
2653;DHT22;1336;48.692;9.144;2023-11-19T08:08:38;12.70;97.20
2653;DHT22;1336;48.692;9.144;2023-11-19T08:09:30;12.70;97.20
2653;DHT22;1336;48.692;9.144;2023-11-19T08:10:22;12.70;97.20
2653;DHT22;1336;48.692;9.144;2023-11-19T08:11:14;12.70;97.20
2653;DHT22;1336;48.692;9.144;2023-11-19T08:12:06;12.70;97.20
2653;DHT22;1336;48.692;9.144;2023-11-19T08:12:58;12.70;97.20
2653;DHT22;1336;48.692;9.144;2023-11-19T08:13:49;12.70;97.20
2653;DHT22;1336;48.692;9.144;2023-11-19T08:14:41;12.70;97.20
2653;DHT22;1336;48.692;9.144;2023-11-19T08:15:32;12.70;97.20
2653;DHT22;1336;48.692;9.144;2023-11-19T08:16:23;12.70;97.20
2653;DHT22;1336;48.692;9.144;2023-11-19T08:17:14;12.70;97.20
2653;DHT22;1336;48.692;9.144;2023-11-19T08:18:06;12.70;97.20
2653;DHT22;1336;48.692;9.144;2023-11-19T08:18:57;12.70;97.20
2653;DHT22;1336;48.692;9.144;2023-11-19T08:19:51;12.70;97.20
2653;DHT22;1336;48.692;9.144;2023-11-19T08:20:41;12.70;97.20
2653;DHT22;1336;48.692;9.144;2023-11-19T08:21:35;12.80;97.20
2653;DHT22;1336;48.692;9.144;2023-11-19T08:22:27;12.80;97.20
2653;DHT22;1336;48.692;9.144;2023-11-19T08:23:17;12.80;97.20
2653;DHT22;1336;48.692;9.144;2023-11-19T08:24:09;12.80;97.20
2653;DHT22;1336;48.692;9.144;2023-11-19T08:25:00;12.90;97.20
2653;DHT22;1336;48.692;9.144;2023-11-19T08:25:52;12.90;97.20
2653;DHT22;1336;48.692;9.144;2023-11-19T08:26:43;12.90;97.20
2653;DHT22;1336;48.692;9.144;2023-11-19T08:27:34;12.90;97.20
2653;DHT22;1336;48.692;9.144;2023-11-19T08:28:25;12.90;97.20
2653;DHT22;1336;48.692;9.144;2023-11-19T08:29:16;13.00;97.20
2653;DHT22;1336;48.692;9.144;2023-11-19T08:30:08;13.00;97.20
2653;DHT22;1336;48.692;9.144;2023-11-19T08:30:59;13.00;97.20
2653;DHT22;1336;48.692;9.144;2023-11-19T08:31:50;13.10;97.20
2653;DHT22;1336;48.692;9.144;2023-11-19T08:32:41;13.10;97.20
2653;DHT22;1336;48.692;9.144;2023-11-19T08:33:33;13.10;97.20
2653;DHT22;1336;48.692;9.144;2023-11-19T08:34:24;13.10;97.20
2653;DHT22;1336;48.692;9.144;2023-11-19T08:35:16;13.20;97.20
2653;DHT22;1336;48.692;9.144;2023-11-19T08:36:08;13.20;97.20
2653;DHT22;1336;48.692;9.144;2023-11-19T08:36:59;13.20;97.20
2653;DHT22;1336;48.692;9.144;2023-11-19T08:37:50;13.20;97.20
2653;DHT22;1336;48.692;9.144;2023-11-19T08:38:42;13.20;97.20
2653;DHT22;1336;48.692;9.144;2023-11-19T08:39:33;13.30;97.20
2653;DHT22;1336;48.692;9.144;2023-11-19T08:40:25;13.30;97.20
2653;DHT22;1336;48.692;9.144;2023-11-19T08:41:16;13.40;97.20
2653;DHT22;1336;48.692;9.144;2023-11-19T08:42:08;13.40;97.20
2653;DHT22;1336;48.692;9.144;2023-11-19T08:42:59;13.50;97.20
2653;DHT22;1336;48.692;9.144;2023-11-19T08:43:49;13.60;97.20
2653;DHT22;1336;48.692;9.144;2023-11-19T08:44:42;13.60;97.20
2653;DHT22;1336;48.692;9.144;2023-11-19T08:45:34;13.70;97.20
2653;DHT22;1336;48.692;9.144;2023-11-19T08:46:25;13.70;97.20
2653;DHT22;1336;48.692;9.144;2023-11-19T08:47:17;13.80;97.20
2653;DHT22;1336;48.692;9.144;2023-11-19T08:48:08;13.80;97.20
2653;DHT22;1336;48.692;9.144;2023-11-19T08:48:59;13.80;97.20
2653;DHT22;1336;48.692;9.144;2023-11-19T08:49:51;13.80;97.20
2653;DHT22;1336;48.692;9.144;2023-11-19T08:50:44;13.80;97.20
2653;DHT22;1336;48.692;9.144;2023-11-19T08:51:35;13.80;97.20
2653;DHT22;1336;48.692;9.144;2023-11-19T08:52:26;13.80;97.20
2653;DHT22;1336;48.692;9.144;2023-11-19T08:53:18;13.80;97.20
2653;DHT22;1336;48.692;9.144;2023-11-19T08:54:08;13.80;97.20
2653;DHT22;1336;48.692;9.144;2023-11-19T08:55:01;13.80;97.20
2653;DHT22;1336;48.692;9.144;2023-11-19T08:55:51;13.80;97.20
2653;DHT22;1336;48.692;9.144;2023-11-19T08:56:43;13.80;97.20
2653;DHT22;1336;48.692;9.144;2023-11-19T08:57:34;13.90;97.20
2653;DHT22;1336;48.692;9.144;2023-11-19T08:58:26;13.90;97.20
2653;DHT22;1336;48.692;9.144;2023-11-19T08:59:16;13.90;97.20
2653;DHT22;1336;48.692;9.144;2023-11-19T09:00:08;13.90;97.20
2653;DHT22;1336;48.692;9.144;2023-11-19T09:01:00;13.90;97.20
2653;DHT22;1336;48.692;9.144;2023-11-19T09:01:51;13.90;97.20
2653;DHT22;1336;48.692;9.144;2023-11-19T09:02:42;13.90;97.20
2653;DHT22;1336;48.692;9.144;2023-11-19T09:03:33;13.90;97.20
2653;DHT22;1336;48.692;9.144;2023-11-19T09:04:25;13.90;97.20
2653;DHT22;1336;48.692;9.144;2023-11-19T09:05:15;13.90;97.20
2653;DHT22;1336;48.692;9.144;2023-11-19T09:06:09;13.90;97.20
2653;DHT22;1336;48.692;9.144;2023-11-19T09:06:59;13.90;97.20
2653;DHT22;1336;48.692;9.144;2023-11-19T09:07:50;14.00;97.20
2653;DHT22;1336;48.692;9.144;2023-11-19T09:08:42;14.00;97.20
2653;DHT22;1336;48.692;9.144;2023-11-19T09:09:33;14.00;97.20
2653;DHT22;1336;48.692;9.144;2023-11-19T09:10:26;14.00;97.20
2653;DHT22;1336;48.692;9.144;2023-11-19T09:11:19;14.10;97.20
2653;DHT22;1336;48.692;9.144;2023-11-19T09:12:10;14.10;97.20
2653;DHT22;1336;48.692;9.144;2023-11-19T09:13:02;14.10;97.20
2653;DHT22;1336;48.692;9.144;2023-11-19T09:13:52;14.20;97.20
2653;DHT22;1336;48.692;9.144;2023-11-19T09:14:43;14.20;97.20
2653;DHT22;1336;48.692;9.144;2023-11-19T09:15:36;14.20;97.20
2653;DHT22;1336;48.692;9.144;2023-11-19T09:16:26;14.30;97.20
2653;DHT22;1336;48.692;9.144;2023-11-19T09:17:17;14.30;97.20
2653;DHT22;1336;48.692;9.144;2023-11-19T09:18:09;14.30;97.20
2653;DHT22;1336;48.692;9.144;2023-11-19T09:19:00;14.40;97.20
2653;DHT22;1336;48.692;9.144;2023-11-19T09:19:53;14.40;97.20
2653;DHT22;1336;48.692;9.144;2023-11-19T09:20:43;14.40;97.20
2653;DHT22;1336;48.692;9.144;2023-11-19T09:21:37;14.50;97.20
2653;DHT22;1336;48.692;9.144;2023-11-19T09:22:29;14.50;97.20
2653;DHT22;1336;48.692;9.144;2023-11-19T09:23:19;14.50;97.20
2653;DHT22;1336;48.692;9.144;2023-11-19T09:24:11;14.50;97.20
2653;DHT22;1336;48.692;9.144;2023-11-19T09:25:02;14.50;97.20
2653;DHT22;1336;48.692;9.144;2023-11-19T09:25:55;14.50;97.20
2653;DHT22;1336;48.692;9.144;2023-11-19T09:26:46;14.60;97.20
2653;DHT22;1336;48.692;9.144;2023-11-19T09:27:37;14.60;97.20
2653;DHT22;1336;48.692;9.144;2023-11-19T09:28:28;14.60;97.20
2653;DHT22;1336;48.692;9.144;2023-11-19T09:29:19;14.60;97.20
2653;DHT22;1336;48.692;9.144;2023-11-19T09:30:12;14.70;97.20
2653;DHT22;1336;48.692;9.144;2023-11-19T09:31:12;14.70;97.20
2653;DHT22;1336;48.692;9.144;2023-11-19T09:32:03;14.70;97.20
2653;DHT22;1336;48.692;9.144;2023-11-19T09:32:55;14.70;97.20
2653;DHT22;1336;48.692;9.144;2023-11-19T09:33:45;14.70;97.20
2653;DHT22;1336;48.692;9.144;2023-11-19T09:34:36;14.70;97.20
2653;DHT22;1336;48.692;9.144;2023-11-19T09:35:28;14.70;97.20
2653;DHT22;1336;48.692;9.144;2023-11-19T09:36:19;14.80;97.20
2653;DHT22;1336;48.692;9.144;2023-11-19T09:37:11;14.80;97.20
2653;DHT22;1336;48.692;9.144;2023-11-19T09:38:02;14.80;97.20
2653;DHT22;1336;48.692;9.144;2023-11-19T09:38:55;14.80;97.20
2653;DHT22;1336;48.692;9.144;2023-11-19T09:39:46;14.80;97.20
2653;DHT22;1336;48.692;9.144;2023-11-19T09:40:38;14.80;97.20
2653;DHT22;1336;48.692;9.144;2023-11-19T09:41:30;14.80;97.20
2653;DHT22;1336;48.692;9.144;2023-11-19T09:42:24;14.80;97.20
2653;DHT22;1336;48.692;9.144;2023-11-19T09:43:15;14.80;97.20
2653;DHT22;1336;48.692;9.144;2023-11-19T09:44:07;14.80;97.20
2653;DHT22;1336;48.692;9.144;2023-11-19T09:44:59;14.80;97.20
2653;DHT22;1336;48.692;9.144;2023-11-19T09:45:52;14.80;97.20
2653;DHT22;1336;48.692;9.144;2023-11-19T09:46:44;14.80;97.20
2653;DHT22;1336;48.692;9.144;2023-11-19T09:47:36;14.80;97.20
2653;DHT22;1336;48.692;9.144;2023-11-19T09:48:28;14.80;97.20
2653;DHT22;1336;48.692;9.144;2023-11-19T09:49:21;14.70;97.20
2653;DHT22;1336;48.692;9.144;2023-11-19T09:50:16;14.70;97.20
2653;DHT22;1336;48.692;9.144;2023-11-19T09:51:10;14.70;97.20
2653;DHT22;1336;48.692;9.144;2023-11-19T09:52:01;14.70;97.20
2653;DHT22;1336;48.692;9.144;2023-11-19T09:52:54;14.70;97.20
2653;DHT22;1336;48.692;9.144;2023-11-19T09:53:45;14.70;97.20
2653;DHT22;1336;48.692;9.144;2023-11-19T09:54:37;14.70;97.20
2653;DHT22;1336;48.692;9.144;2023-11-19T09:55:28;14.70;97.20
2653;DHT22;1336;48.692;9.144;2023-11-19T09:56:19;14.70;97.20
2653;DHT22;1336;48.692;9.144;2023-11-19T09:57:12;14.70;97.20
2653;DHT22;1336;48.692;9.144;2023-11-19T09:58:07;14.70;97.20
2653;DHT22;1336;48.692;9.144;2023-11-19T09:58:58;14.60;97.20
2653;DHT22;1336;48.692;9.144;2023-11-19T09:59:51;14.60;97.20
2653;DHT22;1336;48.692;9.144;2023-11-19T10:00:44;14.60;97.20
2653;DHT22;1336;48.692;9.144;2023-11-19T10:01:35;14.50;97.20
2653;DHT22;1336;48.692;9.144;2023-11-19T10:02:29;14.50;97.20
2653;DHT22;1336;48.692;9.144;2023-11-19T10:03:27;14.50;97.20
2653;DHT22;1336;48.692;9.144;2023-11-19T10:04:22;14.40;97.20
2653;DHT22;1336;48.692;9.144;2023-11-19T10:05:14;14.40;97.20
2653;DHT22;1336;48.692;9.144;2023-11-19T10:06:08;14.40;97.20
2653;DHT22;1336;48.692;9.144;2023-11-19T10:06:59;14.30;97.20
2653;DHT22;1336;48.692;9.144;2023-11-19T10:07:50;14.40;97.20
2653;DHT22;1336;48.692;9.144;2023-11-19T10:08:43;14.40;97.20
2653;DHT22;1336;48.692;9.144;2023-11-19T10:09:34;14.40;97.20
2653;DHT22;1336;48.692;9.144;2023-11-19T10:10:26;14.40;97.20
2653;DHT22;1336;48.692;9.144;2023-11-19T10:11:17;14.50;97.20
2653;DHT22;1336;48.692;9.144;2023-11-19T10:12:08;14.50;97.20
2653;DHT22;1336;48.692;9.144;2023-11-19T10:13:01;14.60;97.20
2653;DHT22;1336;48.692;9.144;2023-11-19T10:13:53;14.60;97.20
2653;DHT22;1336;48.692;9.144;2023-11-19T10:14:46;14.60;97.20
2653;DHT22;1336;48.692;9.144;2023-11-19T10:15:39;14.70;97.20
2653;DHT22;1336;48.692;9.144;2023-11-19T10:16:31;14.70;97.20
2653;DHT22;1336;48.692;9.144;2023-11-19T10:17:27;14.70;97.20
2653;DHT22;1336;48.692;9.144;2023-11-19T10:18:24;14.70;97.20
2653;DHT22;1336;48.692;9.144;2023-11-19T10:19:19;14.70;97.20
2653;DHT22;1336;48.692;9.144;2023-11-19T10:20:11;14.70;97.20
2653;DHT22;1336;48.692;9.144;2023-11-19T10:21:04;14.70;97.20
2653;DHT22;1336;48.692;9.144;2023-11-19T10:21:56;14.70;97.20
2653;DHT22;1336;48.692;9.144;2023-11-19T10:22:53;14.70;97.20
2653;DHT22;1336;48.692;9.144;2023-11-19T10:23:51;14.70;97.20
2653;DHT22;1336;48.692;9.144;2023-11-19T10:24:44;14.70;97.20
2653;DHT22;1336;48.692;9.144;2023-11-19T10:25:35;14.70;97.20
2653;DHT22;1336;48.692;9.144;2023-11-19T10:26:26;14.70;97.20
2653;DHT22;1336;48.692;9.144;2023-11-19T10:27:19;14.70;97.20
2653;DHT22;1336;48.692;9.144;2023-11-19T10:28:09;14.80;97.20
2653;DHT22;1336;48.692;9.144;2023-11-19T10:29:00;14.80;97.20
2653;DHT22;1336;48.692;9.144;2023-11-19T10:29:52;14.90;97.20
2653;DHT22;1336;48.692;9.144;2023-11-19T10:30:43;14.90;97.20
2653;DHT22;1336;48.692;9.144;2023-11-19T10:31:37;15.00;97.20
2653;DHT22;1336;48.692;9.144;2023-11-19T10:32:28;15.00;97.20
2653;DHT22;1336;48.692;9.144;2023-11-19T10:33:19;15.10;97.20
2653;DHT22;1336;48.692;9.144;2023-11-19T10:34:25;15.10;97.20
2653;DHT22;1336;48.692;9.144;2023-11-19T10:35:16;15.20;97.20
2653;DHT22;1336;48.692;9.144;2023-11-19T10:36:08;15.20;97.20
2653;DHT22;1336;48.692;9.144;2023-11-19T10:37:02;15.30;97.20
2653;DHT22;1336;48.692;9.144;2023-11-19T10:37:54;15.30;97.20
2653;DHT22;1336;48.692;9.144;2023-11-19T10:38:53;15.30;97.20
2653;DHT22;1336;48.692;9.144;2023-11-19T10:39:53;15.40;97.20
2653;DHT22;1336;48.692;9.144;2023-11-19T10:40:45;15.40;97.20
2653;DHT22;1336;48.692;9.144;2023-11-19T10:41:35;15.40;97.20
2653;DHT22;1336;48.692;9.144;2023-11-19T10:42:27;15.30;97.20
2653;DHT22;1336;48.692;9.144;2023-11-19T10:43:19;15.30;97.20
2653;DHT22;1336;48.692;9.144;2023-11-19T10:44:10;15.30;97.20
2653;DHT22;1336;48.692;9.144;2023-11-19T10:45:05;15.30;97.20
2653;DHT22;1336;48.692;9.144;2023-11-19T10:46:13;15.30;97.20
2653;DHT22;1336;48.692;9.144;2023-11-19T10:47:06;15.20;97.20
2653;DHT22;1336;48.692;9.144;2023-11-19T10:47:58;15.20;97.20
2653;DHT22;1336;48.692;9.144;2023-11-19T10:48:50;15.20;97.20
2653;DHT22;1336;48.692;9.144;2023-11-19T10:49:41;15.10;97.20
2653;DHT22;1336;48.692;9.144;2023-11-19T10:50:33;15.10;97.20
2653;DHT22;1336;48.692;9.144;2023-11-19T10:51:24;15.10;97.20
2653;DHT22;1336;48.692;9.144;2023-11-19T10:52:18;15.00;97.20
2653;DHT22;1336;48.692;9.144;2023-11-19T10:53:11;15.00;97.20
2653;DHT22;1336;48.692;9.144;2023-11-19T10:54:06;15.00;97.20
2653;DHT22;1336;48.692;9.144;2023-11-19T10:55:00;15.00;97.20
2653;DHT22;1336;48.692;9.144;2023-11-19T10:55:51;15.00;97.20
2653;DHT22;1336;48.692;9.144;2023-11-19T10:56:44;15.00;97.20
2653;DHT22;1336;48.692;9.144;2023-11-19T10:57:39;15.00;97.20
2653;DHT22;1336;48.692;9.144;2023-11-19T10:58:33;15.00;97.20
2653;DHT22;1336;48.692;9.144;2023-11-19T10:59:28;15.00;97.20
2653;DHT22;1336;48.692;9.144;2023-11-19T11:00:21;15.00;97.20
2653;DHT22;1336;48.692;9.144;2023-11-19T11:01:20;15.00;97.20
2653;DHT22;1336;48.692;9.144;2023-11-19T11:02:18;15.00;97.20
2653;DHT22;1336;48.692;9.144;2023-11-19T11:03:14;15.00;97.20
2653;DHT22;1336;48.692;9.144;2023-11-19T11:04:13;15.00;97.20
2653;DHT22;1336;48.692;9.144;2023-11-19T11:05:06;15.00;97.20
2653;DHT22;1336;48.692;9.144;2023-11-19T11:05:58;14.90;97.20
2653;DHT22;1336;48.692;9.144;2023-11-19T11:06:50;14.90;97.20
2653;DHT22;1336;48.692;9.144;2023-11-19T11:07:42;14.90;97.20
2653;DHT22;1336;48.692;9.144;2023-11-19T11:08:37;14.90;97.20
2653;DHT22;1336;48.692;9.144;2023-11-19T11:09:30;14.90;97.20
2653;DHT22;1336;48.692;9.144;2023-11-19T11:10:25;14.90;97.20
2653;DHT22;1336;48.692;9.144;2023-11-19T11:11:16;15.00;97.20
2653;DHT22;1336;48.692;9.144;2023-11-19T11:12:11;15.00;97.20
2653;DHT22;1336;48.692;9.144;2023-11-19T11:13:03;15.00;97.20
2653;DHT22;1336;48.692;9.144;2023-11-19T11:13:55;15.10;97.20
2653;DHT22;1336;48.692;9.144;2023-11-19T11:14:47;15.10;97.20
2653;DHT22;1336;48.692;9.144;2023-11-19T11:15:38;15.10;97.20
2653;DHT22;1336;48.692;9.144;2023-11-19T11:16:30;15.20;97.20
2653;DHT22;1336;48.692;9.144;2023-11-19T11:17:24;15.20;97.20
2653;DHT22;1336;48.692;9.144;2023-11-19T11:18:17;15.20;97.20
2653;DHT22;1336;48.692;9.144;2023-11-19T11:19:07;15.20;97.20
2653;DHT22;1336;48.692;9.144;2023-11-19T11:20:00;15.20;97.20
2653;DHT22;1336;48.692;9.144;2023-11-19T11:20:53;15.30;97.20
2653;DHT22;1336;48.692;9.144;2023-11-19T11:21:49;15.30;97.20
2653;DHT22;1336;48.692;9.144;2023-11-19T11:22:49;15.30;97.20
2653;DHT22;1336;48.692;9.144;2023-11-19T11:24:08;15.30;97.20
2653;DHT22;1336;48.692;9.144;2023-11-19T11:25:23;15.30;97.20
2653;DHT22;1336;48.692;9.144;2023-11-19T11:26:58;15.30;97.20
2653;DHT22;1336;48.692;9.144;2023-11-19T11:28:03;15.30;97.20
2653;DHT22;1336;48.692;9.144;2023-11-19T11:28:59;15.20;97.20
2653;DHT22;1336;48.692;9.144;2023-11-19T11:30:05;15.20;97.20
2653;DHT22;1336;48.692;9.144;2023-11-19T11:31:13;15.30;97.20
2653;DHT22;1336;48.692;9.144;2023-11-19T11:32:18;15.30;97.20
2653;DHT22;1336;48.692;9.144;2023-11-19T11:33:25;15.30;97.20
2653;DHT22;1336;48.692;9.144;2023-11-19T11:34:51;15.30;97.20
2653;DHT22;1336;48.692;9.144;2023-11-19T11:35:51;15.30;97.20
2653;DHT22;1336;48.692;9.144;2023-11-19T11:36:51;15.20;97.20
2653;DHT22;1336;48.692;9.144;2023-11-19T11:37:45;15.30;97.20
2653;DHT22;1336;48.692;9.144;2023-11-19T11:38:40;15.30;97.20
2653;DHT22;1336;48.692;9.144;2023-11-19T11:39:32;15.30;97.20
2653;DHT22;1336;48.692;9.144;2023-11-19T11:40:25;15.30;97.20
2653;DHT22;1336;48.692;9.144;2023-11-19T11:41:18;15.30;97.20
2653;DHT22;1336;48.692;9.144;2023-11-19T11:42:34;15.30;97.20
2653;DHT22;1336;48.692;9.144;2023-11-19T11:43:52;15.30;97.20
2653;DHT22;1336;48.692;9.144;2023-11-19T11:44:58;15.30;97.20